createdAt,value
2023-02-18T00:01:12.281Z,2.75
2023-02-18T00:06:16.549Z,2.60
2023-02-18T00:11:18.941Z,4.03
2023-02-18T00:16:20.454Z,2.30
2023-02-18T00:21:21.911Z,2.80
2023-02-18T00:26:24.467Z,2.35
2023-02-18T00:31:30.871Z,2.20
2023-02-18T00:36:32.569Z,2.38
2023-02-18T00:41:34.588Z,2.75
2023-02-18T00:46:36.378Z,2.22
2023-02-18T00:51:37.924Z,2.83
2023-02-18T00:56:39.288Z,2.88
2023-02-18T01:01:40.863Z,2.92
2023-02-18T01:06:42.307Z,3.53
2023-02-18T01:11:43.794Z,3.40
2023-02-18T01:16:45.208Z,4.18
2023-02-18T01:21:46.711Z,4.00
2023-02-18T01:26:48.241Z,5.00
2023-02-18T01:31:49.893Z,4.57
2023-02-18T01:36:51.454Z,5.22
2023-02-18T01:41:52.836Z,5.03
2023-02-18T01:46:54.359Z,5.20
2023-02-18T01:52:25.066Z,6.97
2023-02-18T01:57:31.265Z,6.25
2023-02-18T02:02:33.692Z,6.93
2023-02-18T02:07:35.178Z,6.65
2023-02-18T02:12:43.531Z,7.05
2023-02-18T02:17:57.266Z,7.88
2023-02-18T02:23:17.555Z,8.27
2023-02-18T02:28:25.038Z,8.80
2023-02-18T02:33:45.205Z,9.45
2023-02-18T02:43:50.852Z,11.35
2023-02-18T02:48:59.746Z,11.55
2023-02-18T02:54:12.231Z,11.50
2023-02-18T02:59:15.172Z,12.65
2023-02-18T03:04:34.790Z,14.00
2023-02-18T03:10:00.565Z,14.68
2023-02-18T03:15:05.237Z,16.40
2023-02-18T03:20:12.473Z,16.60
2023-02-18T03:25:14.906Z,17.48
2023-02-18T03:30:18.144Z,17.50
2023-02-18T03:35:20.053Z,18.88
2023-02-18T03:40:21.521Z,18.80
2023-02-18T03:45:23.033Z,20.98
2023-02-18T03:50:24.466Z,20.13
2023-02-18T03:55:25.887Z,22.27
2023-02-18T04:00:27.284Z,25.20
2023-02-18T04:05:28.737Z,25.70
2023-02-18T04:10:30.125Z,26.67
2023-02-18T04:15:31.749Z,24.85
2023-02-18T04:20:33.145Z,20.58
2023-02-18T04:25:34.920Z,16.15
2023-02-18T04:30:36.437Z,14.40
2023-02-18T04:35:41.898Z,15.23
2023-02-18T04:40:43.466Z,16.63
2023-02-18T04:45:44.888Z,18.17
2023-02-18T04:50:46.380Z,16.30
2023-02-18T04:55:51.790Z,14.73
2023-02-18T05:00:54.115Z,12.52
2023-02-18T05:05:55.594Z,12.40
2023-02-18T05:10:57.095Z,13.27
2023-02-18T05:15:58.570Z,13.85
2023-02-18T05:21:00.469Z,14.23
2023-02-18T05:26:01.964Z,12.85
2023-02-18T05:31:03.999Z,11.65
2023-02-18T05:36:05.707Z,11.32
2023-02-18T05:41:07.141Z,10.50
2023-02-18T05:46:08.885Z,11.98
2023-02-18T05:51:10.537Z,10.50
2023-02-18T05:56:11.962Z,10.07
2023-02-18T06:01:13.397Z,9.63
2023-02-18T06:06:14.950Z,9.07
2023-02-18T06:11:16.528Z,8.98
2023-02-18T06:16:17.986Z,8.20
2023-02-18T06:21:19.666Z,7.72
2023-02-18T06:26:21.170Z,7.78
2023-02-18T06:31:22.657Z,7.07
2023-02-18T06:36:24.150Z,6.53
2023-02-18T06:41:25.601Z,5.93
2023-02-18T06:46:27.018Z,5.50
2023-02-18T06:51:28.404Z,5.53
2023-02-18T06:56:31.049Z,5.93
2023-02-18T07:01:32.695Z,5.53
2023-02-18T07:06:34.153Z,6.05
2023-02-18T07:11:35.620Z,6.80
2023-02-18T07:16:37.056Z,8.02
2023-02-18T07:21:38.451Z,7.22
2023-02-18T07:26:39.879Z,7.07
2023-02-18T07:31:41.577Z,6.60
2023-02-18T07:36:43.030Z,6.20
2023-02-18T07:41:44.422Z,6.82
2023-02-18T07:46:47.474Z,5.82
2023-02-18T07:51:50.533Z,6.13
2023-02-18T07:56:52.264Z,5.95
2023-02-18T08:01:53.824Z,5.78
2023-02-18T08:06:55.276Z,4.90
2023-02-18T08:11:57.915Z,4.85
2023-02-18T08:16:59.420Z,4.60
2023-02-18T08:22:04.216Z,4.75
2023-02-18T08:27:05.655Z,5.00
2023-02-18T08:32:07.105Z,4.20
2023-02-18T08:37:08.602Z,3.10
2023-02-18T08:42:10.130Z,2.72
2023-02-18T08:48:18.238Z,2.67
2023-02-18T08:52:33.001Z,2.70
2023-02-18T08:57:34.479Z,3.72
2023-02-18T09:02:35.873Z,2.50
2023-02-18T09:07:37.796Z,2.85
2023-02-18T09:12:39.218Z,2.45
2023-02-18T09:17:40.616Z,3.22
2023-02-18T09:22:42.146Z,3.03
2023-02-18T09:27:43.577Z,2.10
2023-02-18T09:32:44.974Z,2.53
2023-02-18T09:37:46.352Z,2.70
2023-02-18T09:42:47.752Z,2.40
2023-02-18T09:47:50.682Z,2.55
2023-02-18T09:52:52.322Z,3.35
2023-02-18T09:57:55.047Z,2.95
2023-02-18T10:03:02.600Z,2.83
2023-02-18T10:08:06.740Z,3.25
2023-02-18T10:13:13.266Z,2.65
2023-02-18T10:18:19.785Z,4.38
2023-02-18T10:23:21.340Z,3.28
2023-02-18T10:28:23.786Z,3.17
2023-02-18T10:33:35.987Z,3.03
2023-02-18T10:38:43.213Z,2.53
2023-02-18T10:43:56.888Z,2.83
2023-02-18T10:49:31.892Z,3.17
2023-02-18T10:54:48.385Z,3.92
2023-02-18T11:00:01.239Z,2.53
2023-02-18T11:05:07.101Z,3.08
2023-02-18T11:10:19.246Z,1.95
2023-02-18T11:15:23.596Z,2.75
2023-02-18T11:20:29.716Z,3.67
2023-02-18T11:25:33.609Z,2.63
2023-02-18T11:30:53.834Z,3.00
2023-02-18T11:35:56.605Z,3.13
2023-02-18T11:41:03.860Z,2.38
2023-02-18T11:46:09.724Z,3.20
2023-02-18T11:51:31.396Z,3.22
2023-02-18T11:56:35.379Z,2.47
2023-02-18T12:01:47.645Z,3.35
2023-02-18T12:06:52.081Z,2.45
2023-02-18T12:11:56.909Z,2.70
2023-02-18T12:17:25.930Z,2.45
2023-02-18T12:22:30.436Z,3.67
2023-02-18T12:28:01.095Z,3.15
2023-02-18T12:33:15.377Z,2.65
2023-02-18T12:38:26.480Z,2.78
2023-02-18T12:43:27.871Z,3.90
2023-02-18T12:48:35.486Z,3.28
2023-02-18T12:53:52.361Z,3.10
2023-02-18T12:59:12.470Z,3.13
2023-02-18T13:09:25.296Z,3.10
2023-02-18T13:14:29.680Z,2.33
2023-02-18T13:19:43.987Z,2.53
2023-02-18T13:24:49.562Z,3.40
2023-02-18T13:30:08.680Z,2.42
2023-02-18T13:35:10.104Z,2.65
2023-02-18T13:40:37.949Z,2.80
2023-02-18T13:45:39.689Z,2.42
2023-02-18T13:50:43.101Z,2.75
2023-02-18T13:55:52.942Z,2.88
2023-02-18T14:00:57.214Z,2.53
2023-02-18T14:05:58.619Z,2.35
2023-02-18T14:11:12.206Z,2.28
2023-02-18T14:16:13.853Z,2.00
2023-02-18T14:21:15.259Z,2.60
2023-02-18T14:26:19.341Z,2.78
2023-02-18T14:31:30.284Z,2.30
2023-02-18T14:36:58.285Z,2.15
2023-02-18T14:41:59.645Z,2.53
2023-02-18T14:47:03.919Z,2.35
2023-02-18T14:52:07.173Z,2.40
2023-02-18T14:57:13.112Z,2.30
2023-02-18T15:02:17.501Z,1.83
2023-02-18T15:07:22.564Z,2.97
2023-02-18T15:12:25.870Z,2.33
2023-02-18T15:17:27.742Z,2.70
2023-02-18T15:22:31.987Z,2.10
2023-02-18T15:27:38.975Z,2.55
2023-02-18T15:32:40.474Z,2.78
2023-02-18T15:37:44.647Z,3.00
2023-02-18T15:42:47.548Z,2.58
2023-02-18T15:47:51.044Z,2.55
2023-02-18T15:52:53.480Z,2.50
2023-02-18T15:57:55.010Z,2.55
2023-02-18T16:03:02.230Z,2.45
2023-02-18T16:08:12.700Z,2.90
2023-02-18T16:13:15.987Z,2.90
2023-02-18T16:18:29.309Z,2.78
2023-02-18T16:23:33.432Z,3.47
2023-02-18T16:28:35.330Z,3.03
2023-02-18T16:33:36.823Z,3.15
2023-02-18T16:38:38.477Z,2.72
2023-02-18T16:43:40.058Z,3.22
2023-02-18T16:48:43.165Z,3.92
2023-02-18T16:53:45.036Z,3.38
2023-02-18T16:58:46.464Z,3.20
2023-02-18T17:03:48.931Z,3.38
2023-02-18T17:08:50.537Z,3.38
2023-02-18T17:13:52.692Z,3.20
2023-02-18T17:18:54.121Z,3.10
2023-02-18T17:23:55.704Z,3.20
2023-02-18T17:28:58.128Z,4.00
2023-02-18T17:34:00.979Z,3.95
2023-02-18T17:39:05.880Z,3.15
2023-02-18T17:44:15.171Z,3.30
2023-02-18T17:49:16.912Z,3.63
2023-02-18T17:54:20.016Z,2.92
2023-02-18T17:59:21.993Z,3.22
2023-02-18T18:04:23.420Z,3.08
2023-02-18T18:09:25.637Z,4.45
2023-02-18T18:14:27.751Z,3.72
2023-02-18T18:19:30.299Z,3.78
2023-02-18T18:24:31.749Z,4.18
2023-02-18T18:29:33.646Z,3.63
2023-02-18T18:34:35.070Z,3.83
2023-02-18T18:39:36.545Z,4.18
2023-02-18T18:44:38.097Z,3.72
2023-02-18T18:49:39.529Z,3.65
2023-02-18T18:54:41.465Z,4.32
2023-02-18T18:59:42.915Z,5.70
2023-02-18T19:04:44.361Z,4.65
2023-02-18T19:09:45.811Z,5.40
2023-02-18T19:14:47.248Z,4.22
2023-02-18T19:19:48.692Z,4.70
2023-02-18T19:24:50.106Z,6.20
2023-02-18T19:29:54.387Z,6.45
2023-02-18T19:34:55.845Z,7.75
2023-02-18T19:39:57.251Z,6.30
2023-02-18T19:44:59.014Z,7.70
2023-02-18T19:50:01.312Z,7.57
2023-02-18T19:55:02.713Z,8.82
2023-02-18T20:00:05.202Z,7.82
2023-02-18T20:05:07.499Z,7.07
2023-02-18T20:10:11.298Z,5.60
2023-02-18T20:15:12.765Z,7.03
2023-02-18T20:20:14.298Z,7.40
2023-02-18T20:25:16.953Z,8.38
2023-02-18T20:30:18.439Z,6.97
2023-02-18T20:35:19.958Z,7.95
2023-02-18T20:40:21.443Z,7.28
2023-02-18T20:45:22.852Z,6.53
2023-02-18T20:50:24.457Z,7.45
2023-02-18T20:55:25.974Z,7.57
2023-02-18T21:00:27.406Z,8.60
2023-02-18T21:05:28.934Z,8.55
2023-02-18T21:10:30.420Z,9.57
2023-02-18T21:15:31.884Z,9.45
2023-02-18T21:20:33.335Z,10.65
2023-02-18T21:25:35.776Z,9.93
2023-02-18T21:30:38.474Z,9.32
2023-02-18T21:35:40.888Z,9.75
2023-02-18T21:40:43.050Z,10.27
2023-02-18T21:45:44.573Z,10.48
2023-02-18T21:50:46.027Z,10.27
2023-02-18T21:55:58.580Z,11.00
2023-02-18T22:01:03.690Z,10.55
2023-02-18T22:06:05.215Z,10.20
2023-02-18T22:11:06.756Z,11.18
2023-02-18T22:16:08.248Z,10.55
2023-02-18T22:21:10.109Z,10.68
2023-02-18T22:26:12.033Z,10.85
2023-02-18T22:31:13.891Z,9.90
2023-02-18T22:36:15.589Z,10.15
2023-02-18T22:41:19.007Z,9.13
2023-02-18T22:46:20.517Z,8.27
2023-02-18T22:51:26.247Z,7.82
2023-02-18T22:56:28.454Z,7.00
2023-02-18T23:01:31.622Z,6.47
2023-02-18T23:06:33.901Z,5.55
2023-02-18T23:11:35.705Z,5.80
2023-02-18T23:16:57.133Z,5.50
2023-02-18T23:21:58.647Z,4.60
2023-02-18T23:27:00.290Z,4.05
2023-02-18T23:32:02.027Z,4.60
2023-02-18T23:37:03.761Z,4.15
2023-02-18T23:42:05.420Z,4.47
2023-02-18T23:47:08.449Z,3.92
2023-02-18T23:52:09.994Z,3.97
2023-02-18T23:57:11.411Z,3.72
